Ribeira, Brazil
Current Conditions -  °F | °C
As of 10:00 AM on Monday 24 Nov 2014 (Local Time) from SBBI Reporting Station
Scattered Clouds Scattered Clouds  
Wind Chill: 70°   Ceiling: Unl
Heat Index: 70°   Visibility: 6mi
Dew Point: 61°   Wind: 12mph
Humidity: 73%   Direction: 50°NE
Pressure: 30.12"   Gusts: NA
Location:  24.66°S, 49.01°W
Report Text: SBBI 241200Z 05010KT 9999 FEW013 SCT020 21/16 Q1020
Loading
Personal Weather Stations






























Interactive Weather Map New forecast layout! Learn more

10-Day Weather Forecast

Advertisements
Track Severe Weather on mobile